createdAt,value
2016-12-03T00:00:49.950Z,0
2016-12-03T00:01:58.518Z,0
2016-12-03T00:03:07.398Z,0
2016-12-03T00:04:16.309Z,0
2016-12-03T00:05:24.874Z,0
2016-12-03T00:06:33.459Z,0
2016-12-03T00:07:42.017Z,0
2016-12-03T00:08:50.579Z,0
2016-12-03T00:09:59.542Z,0
2016-12-03T00:11:08.452Z,0
2016-12-03T00:12:17.015Z,0
2016-12-03T00:13:25.894Z,0
2016-12-03T00:14:35.089Z,0
2016-12-03T00:15:44.422Z,0
2016-12-03T00:16:53.301Z,0
2016-12-03T00:18:02.177Z,0
2016-12-03T00:19:11.058Z,0
2016-12-03T00:20:19.619Z,0
2016-12-03T00:21:28.281Z,0
2016-12-03T00:22:37.159Z,0
2016-12-03T00:23:46.038Z,0
2016-12-03T00:24:54.920Z,0
2016-12-03T00:26:03.487Z,0
2016-12-03T00:27:13.040Z,0
2016-12-03T00:28:21.601Z,0
2016-12-03T00:29:30.163Z,0
2016-12-03T00:30:39.044Z,0
2016-12-03T00:31:47.606Z,0
2016-12-03T00:32:57.577Z,0
2016-12-03T00:34:06.140Z,0
2016-12-03T00:35:15.019Z,0
2016-12-03T00:36:23.897Z,0
2016-12-03T00:37:32.777Z,0
2016-12-03T00:38:41.689Z,0
2016-12-03T00:39:50.251Z,0
2016-12-03T00:40:58.812Z,0
2016-12-03T00:42:07.688Z,0
2016-12-03T00:43:16.252Z,0
2016-12-03T00:44:24.864Z,0
2016-12-03T00:45:33.420Z,0
2016-12-03T00:46:41.979Z,0
2016-12-03T00:47:50.545Z,0
2016-12-03T00:48:59.131Z,0
2016-12-03T00:50:08.152Z,0
2016-12-03T00:51:16.717Z,0
2016-12-03T00:52:25.280Z,0
2016-12-03T00:53:33.841Z,0
2016-12-03T00:54:42.401Z,0
2016-12-03T00:55:51.714Z,0
2016-12-03T00:57:00.275Z,0
2016-12-03T00:58:08.836Z,0
2016-12-03T00:59:17.396Z,0
2016-12-03T01:00:25.957Z,0
2016-12-03T01:01:35.457Z,0
2016-12-03T01:02:44.346Z,0
2016-12-03T01:03:53.224Z,0
2016-12-03T01:05:01.787Z,0
2016-12-03T01:06:10.667Z,0
2016-12-03T01:07:19.283Z,0
2016-12-03T01:08:28.169Z,0
2016-12-03T01:09:36.732Z,0
2016-12-03T01:10:45.939Z,0
2016-12-03T01:11:54.820Z,0
2016-12-03T01:13:03.688Z,0
2016-12-03T01:14:12.569Z,0
2016-12-03T01:15:21.791Z,0
2016-12-03T01:16:30.675Z,0
2016-12-03T01:17:39.562Z,0
2016-12-03T01:18:48.475Z,0
2016-12-03T01:19:57.361Z,0
2016-12-03T01:21:05.921Z,0
2016-12-03T01:22:14.516Z,0
2016-12-03T01:23:23.394Z,0
2016-12-03T01:24:32.354Z,0
2016-12-03T01:25:41.243Z,0
2016-12-03T01:26:50.124Z,0
2016-12-03T01:27:58.692Z,0
2016-12-03T01:29:07.575Z,0
2016-12-03T01:30:16.185Z,0
2016-12-03T01:31:25.060Z,0
2016-12-03T01:32:33.624Z,0
2016-12-03T01:33:42.825Z,0
2016-12-03T01:34:51.702Z,0
2016-12-03T01:36:00.617Z,0
2016-12-03T01:37:09.178Z,0
2016-12-03T01:38:17.740Z,0
2016-12-03T01:39:26.621Z,0
2016-12-03T01:40:35.507Z,0
2016-12-03T01:41:44.419Z,0
2016-12-03T01:42:53.624Z,0
2016-12-03T01:44:02.246Z,0
2016-12-03T01:45:10.810Z,0
2016-12-03T01:46:20.039Z,0
2016-12-03T01:47:29.285Z,0
2016-12-03T01:48:37.844Z,0
2016-12-03T01:49:46.409Z,0
2016-12-03T01:50:55.322Z,0
2016-12-03T01:52:04.208Z,0
2016-12-03T01:53:13.450Z,0
2016-12-03T01:54:22.016Z,0
2016-12-03T01:55:30.576Z,0
2016-12-03T01:56:39.139Z,0
2016-12-03T01:57:48.019Z,0
2016-12-03T01:58:57.572Z,0
2016-12-03T02:00:06.767Z,0
2016-12-03T02:01:15.330Z,0
2016-12-03T02:02:24.206Z,0
2016-12-03T02:03:32.777Z,0
2016-12-03T02:04:41.695Z,0
2016-12-03T02:05:50.286Z,0
2016-12-03T02:06:58.848Z,0
2016-12-03T02:08:08.048Z,0
2016-12-03T02:09:16.939Z,0
2016-12-03T02:10:25.872Z,0
2016-12-03T02:11:34.437Z,0
2016-12-03T02:12:43.317Z,0
2016-12-03T02:13:52.218Z,0
2016-12-03T02:15:01.097Z,0
2016-12-03T02:16:10.121Z,0
2016-12-03T02:17:19.319Z,0
2016-12-03T02:18:28.204Z,0
2016-12-03T02:19:37.086Z,0
2016-12-03T02:20:46.283Z,0
2016-12-03T02:21:55.197Z,0
2016-12-03T02:23:04.081Z,0
2016-12-03T02:24:12.645Z,0
2016-12-03T02:25:21.523Z,0
2016-12-03T02:26:30.405Z,0
2016-12-03T02:27:39.692Z,0
2016-12-03T02:28:48.572Z,0
2016-12-03T02:29:57.453Z,0
2016-12-03T02:31:06.016Z,0
2016-12-03T02:32:14.894Z,0
2016-12-03T02:33:23.808Z,0
2016-12-03T02:34:32.399Z,0
2016-12-03T02:35:40.959Z,0
2016-12-03T02:36:49.838Z,0
2016-12-03T02:37:59.358Z,0
2016-12-03T02:39:08.902Z,0
2016-12-03T02:40:17.779Z,0
2016-12-03T02:41:26.657Z,0
2016-12-03T02:42:35.536Z,0
2016-12-03T02:43:44.423Z,0
2016-12-03T02:44:53.032Z,0
2016-12-03T02:46:02.233Z,0
2016-12-03T02:47:11.485Z,0
2016-12-03T02:48:20.061Z,0
2016-12-03T02:49:28.979Z,0
2016-12-03T02:50:37.616Z,0
2016-12-03T02:51:46.193Z,0
2016-12-03T02:52:54.773Z,0
2016-12-03T02:54:03.664Z,0
2016-12-03T02:55:12.229Z,0
2016-12-03T02:56:21.235Z,0
2016-12-03T02:57:29.817Z,0
2016-12-03T02:58:38.379Z,0
2016-12-03T02:59:47.611Z,0
2016-12-03T03:00:56.519Z,0
2016-12-03T03:02:05.466Z,0
2016-12-03T03:03:14.038Z,0
2016-12-03T03:04:23.255Z,0
2016-12-03T03:05:32.135Z,0
2016-12-03T03:06:40.759Z,0
2016-12-03T03:07:49.692Z,0
2016-12-03T03:08:58.260Z,0
2016-12-03T03:10:06.856Z,0
2016-12-03T03:11:15.739Z,0
2016-12-03T03:12:24.637Z,0
2016-12-03T03:13:33.577Z,0
2016-12-03T03:14:42.169Z,0
2016-12-03T03:15:51.071Z,0
2016-12-03T03:16:59.641Z,0
2016-12-03T03:18:08.537Z,0
2016-12-03T03:19:17.165Z,0
2016-12-03T03:20:25.746Z,0
2016-12-03T03:21:34.321Z,0
2016-12-03T03:22:42.908Z,0
2016-12-03T03:23:51.821Z,0
2016-12-03T03:25:01.096Z,0
2016-12-03T03:26:09.677Z,0
2016-12-03T03:27:18.587Z,0
2016-12-03T03:28:27.168Z,0
2016-12-03T03:29:36.387Z,0
2016-12-03T03:30:45.644Z,0
2016-12-03T03:31:54.546Z,0
2016-12-03T03:33:03.431Z,0
2016-12-03T03:34:12.646Z,0
2016-12-03T03:35:21.240Z,0
2016-12-03T03:36:30.159Z,0
2016-12-03T03:37:39.060Z,0
2016-12-03T03:38:47.949Z,0
2016-12-03T03:39:56.511Z,0
2016-12-03T03:41:05.086Z,0
2016-12-03T03:42:14.340Z,0
2016-12-03T03:43:23.559Z,0
2016-12-03T03:44:32.466Z,0
2016-12-03T03:45:41.342Z,0
2016-12-03T03:46:50.252Z,0
2016-12-03T03:47:59.250Z,0
2016-12-03T03:49:08.154Z,0
2016-12-03T03:50:16.733Z,0
2016-12-03T03:51:25.317Z,0
2016-12-03T03:52:34.215Z,0
2016-12-03T03:53:42.894Z,0
2016-12-03T03:54:51.475Z,0
2016-12-03T03:56:00.041Z,0
2016-12-03T03:57:08.951Z,0
2016-12-03T03:58:18.174Z,0
2016-12-03T03:59:26.804Z,0
2016-12-03T04:00:35.373Z,0
2016-12-03T04:01:44.583Z,0
2016-12-03T04:02:53.484Z,0
2016-12-03T04:04:02.709Z,0
2016-12-03T04:05:11.959Z,0
2016-12-03T04:06:20.539Z,0
2016-12-03T04:07:29.109Z,0
2016-12-03T04:08:37.687Z,0
2016-12-03T04:09:46.570Z,0
2016-12-03T04:10:55.489Z,0
2016-12-03T04:12:04.063Z,0
2016-12-03T04:13:12.956Z,0
2016-12-03T04:14:22.184Z,0
2016-12-03T04:15:30.759Z,0
2016-12-03T04:16:39.953Z,0
2016-12-03T04:17:48.529Z,0
2016-12-03T04:18:57.429Z,0
2016-12-03T04:20:06.321Z,0
2016-12-03T04:21:14.908Z,0
2016-12-03T04:22:23.778Z,0
2016-12-03T04:23:32.983Z,0
2016-12-03T04:24:41.561Z,0
2016-12-03T04:25:50.469Z,0
2016-12-03T04:26:59.048Z,0
2016-12-03T04:28:08.229Z,0
2016-12-03T04:29:17.136Z,0
2016-12-03T04:30:25.712Z,0
2016-12-03T04:31:34.296Z,0
2016-12-03T04:32:42.882Z,0
2016-12-03T04:33:52.152Z,0
2016-12-03T04:35:01.058Z,0
2016-12-03T04:36:09.966Z,0
2016-12-03T04:37:18.535Z,0
2016-12-03T04:38:27.763Z,0
2016-12-03T04:39:37.013Z,0
2016-12-03T04:40:45.583Z,0
2016-12-03T04:41:54.178Z,0
2016-12-03T04:43:02.757Z,0
2016-12-03T04:44:11.640Z,0
2016-12-03T04:45:20.893Z,0
2016-12-03T04:46:29.807Z,0
2016-12-03T04:47:38.396Z,0
2016-12-03T04:48:47.622Z,0
2016-12-03T04:49:56.210Z,0
2016-12-03T04:51:05.194Z,0
2016-12-03T04:52:13.778Z,0
2016-12-03T04:53:22.362Z,0
2016-12-03T04:54:31.262Z,0
2016-12-03T04:55:39.847Z,0
2016-12-03T04:56:48.467Z,0
2016-12-03T04:57:57.047Z,0
2016-12-03T04:59:05.643Z,0
2016-12-03T05:00:14.534Z,0
2016-12-03T05:01:23.103Z,0
2016-12-03T05:02:32.033Z,0
2016-12-03T05:03:40.934Z,0
2016-12-03T05:04:49.517Z,0
2016-12-03T05:05:58.093Z,0
2016-12-03T05:07:06.666Z,0
2016-12-03T05:08:16.264Z,0
2016-12-03T05:09:24.841Z,0
2016-12-03T05:10:33.432Z,0
2016-12-03T05:11:42.337Z,0
2016-12-03T05:12:51.227Z,0
2016-12-03T05:14:00.479Z,0
2016-12-03T05:15:09.377Z,0
2016-12-03T05:16:17.962Z,0
2016-12-03T05:17:27.174Z,0
2016-12-03T05:18:35.752Z,0
2016-12-03T05:19:45.019Z,0
2016-12-03T05:20:53.596Z,0
2016-12-03T05:22:02.185Z,0
2016-12-03T05:23:11.076Z,0
2016-12-03T05:24:19.644Z,0
2016-12-03T05:25:28.518Z,0
2016-12-03T05:26:37.414Z,0
2016-12-03T05:27:46.307Z,0
2016-12-03T05:28:54.877Z,0
2016-12-03T05:30:03.754Z,0
2016-12-03T05:31:12.784Z,0
2016-12-03T05:32:21.703Z,0
2016-12-03T05:33:30.606Z,0
2016-12-03T05:34:39.172Z,0
2016-12-03T05:35:47.743Z,0
2016-12-03T05:36:56.455Z,0
2016-12-03T05:38:05.349Z,0
2016-12-03T05:39:14.575Z,0
2016-12-03T05:40:23.138Z,0
2016-12-03T05:41:32.027Z,0
2016-12-03T05:42:41.290Z,0
2016-12-03T05:43:49.867Z,0
2016-12-03T05:44:59.068Z,0
2016-12-03T05:46:07.970Z,0
2016-12-03T05:47:16.874Z,0
2016-12-03T05:48:25.793Z,0
2016-12-03T05:49:34.377Z,0
2016-12-03T05:50:43.608Z,0
2016-12-03T05:51:52.505Z,0
2016-12-03T05:53:01.082Z,0
2016-12-03T05:54:10.009Z,0
2016-12-03T05:55:18.917Z,0
2016-12-03T05:56:27.835Z,0
2016-12-03T05:57:36.734Z,0
2016-12-03T05:58:45.304Z,0
2016-12-03T05:59:53.931Z,0
2016-12-03T06:01:02.513Z,0
2016-12-03T06:02:11.097Z,0
2016-12-03T06:03:19.679Z,0
2016-12-03T06:04:28.254Z,0
2016-12-03T06:05:37.522Z,0
2016-12-03T06:06:46.083Z,0
2016-12-03T06:07:54.669Z,0
2016-12-03T06:09:03.238Z,0
2016-12-03T06:10:12.441Z,0
2016-12-03T06:11:21.767Z,0
2016-12-03T06:12:30.664Z,0
2016-12-03T06:13:39.235Z,0
2016-12-03T06:14:48.127Z,0
2016-12-03T06:15:56.704Z,0
2016-12-03T06:17:05.385Z,0
2016-12-03T06:18:14.269Z,0
2016-12-03T06:19:23.163Z,0
2016-12-03T06:20:31.737Z,0
2016-12-03T06:21:40.619Z,0
2016-12-03T06:22:49.557Z,0
2016-12-03T06:23:58.449Z,0
2016-12-03T06:25:07.659Z,0
2016-12-03T06:26:16.857Z,0
2016-12-03T06:27:25.446Z,0
2016-12-03T06:28:34.726Z,0
2016-12-03T06:29:43.625Z,0
2016-12-03T06:30:53.158Z,0
2016-12-03T06:32:01.718Z,0
2016-12-03T06:33:10.299Z,0
2016-12-03T06:34:18.927Z,0
2016-12-03T06:35:28.154Z,0
2016-12-03T06:36:36.732Z,0
2016-12-03T06:37:45.625Z,0
2016-12-03T06:38:54.199Z,0
2016-12-03T06:40:03.495Z,0
2016-12-03T06:41:12.069Z,0
2016-12-03T06:42:20.971Z,0
2016-12-03T06:43:29.855Z,0
2016-12-03T06:44:38.426Z,0
2016-12-03T06:45:47.356Z,0
2016-12-03T06:46:56.565Z,0
2016-12-03T06:48:05.467Z,0
2016-12-03T06:49:14.361Z,0
2016-12-03T06:50:23.891Z,0
2016-12-03T06:51:32.924Z,0
2016-12-03T06:52:41.819Z,0
2016-12-03T06:53:51.358Z,0
2016-12-03T06:55:00.249Z,0
2016-12-03T06:56:08.819Z,0
2016-12-03T06:57:18.075Z,0
2016-12-03T06:58:26.963Z,0
2016-12-03T06:59:35.540Z,0
2016-12-03T07:00:44.764Z,0
2016-12-03T07:01:53.344Z,0
2016-12-03T07:03:02.539Z,0
2016-12-03T07:04:11.111Z,0
2016-12-03T07:05:20.001Z,0
2016-12-03T07:06:28.907Z,0
2016-12-03T07:07:37.814Z,5
2016-12-03T07:08:46.798Z,5
2016-12-03T07:09:55.389Z,5
2016-12-03T07:11:03.970Z,5
2016-12-03T07:12:12.556Z,5
2016-12-03T07:13:21.125Z,5
2016-12-03T07:14:30.047Z,10
2016-12-03T07:15:38.639Z,10
2016-12-03T07:16:47.549Z,10
2016-12-03T07:17:57.100Z,10
2016-12-03T07:19:05.679Z,15
2016-12-03T07:20:14.676Z,15
2016-12-03T07:21:23.244Z,15
2016-12-03T07:22:32.138Z,20
2016-12-03T07:23:40.709Z,20
2016-12-03T07:24:49.595Z,20
2016-12-03T07:25:58.523Z,25
2016-12-03T07:27:07.401Z,25
2016-12-03T07:28:16.296Z,30
2016-12-03T07:29:25.189Z,30
2016-12-03T07:30:34.122Z,30
2016-12-03T07:31:43.121Z,35
2016-12-03T07:32:52.008Z,35
2016-12-03T07:34:00.597Z,40
2016-12-03T07:35:09.493Z,40
2016-12-03T07:36:18.060Z,45
2016-12-03T07:37:27.397Z,45
2016-12-03T07:38:36.289Z,50
2016-12-03T07:39:44.861Z,50
2016-12-03T07:40:53.427Z,55
2016-12-03T07:42:02.324Z,55
2016-12-03T07:43:11.330Z,60
2016-12-03T07:44:20.567Z,65
2016-12-03T07:45:29.479Z,65
2016-12-03T07:46:38.369Z,70
2016-12-03T07:47:46.937Z,70
2016-12-03T07:48:55.889Z,75
2016-12-03T07:50:04.463Z,75
2016-12-03T07:51:13.042Z,80
2016-12-03T07:52:21.625Z,85
2016-12-03T07:53:31.164Z,85
2016-12-03T07:54:39.801Z,90
2016-12-03T07:55:48.389Z,90
2016-12-03T07:56:56.984Z,95
2016-12-03T07:58:05.546Z,100
2016-12-03T07:59:14.453Z,100
2016-12-03T08:00:23.481Z,105
2016-12-03T08:01:32.372Z,110
2016-12-03T08:02:41.579Z,110
2016-12-03T08:03:50.503Z,115
2016-12-03T08:04:59.406Z,115
2016-12-03T08:06:08.092Z,120
2016-12-03T08:07:17.297Z,120
2016-12-03T08:08:25.867Z,125
2016-12-03T08:09:34.447Z,125
2016-12-03T08:10:43.671Z,130
2016-12-03T08:11:52.288Z,130
2016-12-03T08:13:01.507Z,135
2016-12-03T08:14:10.412Z,140
2016-12-03T08:15:19.319Z,140
2016-12-03T08:16:28.518Z,145
2016-12-03T08:17:37.782Z,145
2016-12-03T08:18:46.351Z,150
2016-12-03T08:19:54.935Z,150
2016-12-03T08:21:03.522Z,155
2016-12-03T08:22:12.407Z,155
2016-12-03T08:23:21.322Z,160
2016-12-03T08:24:30.525Z,160
2016-12-03T08:25:39.422Z,165
2016-12-03T08:26:48.967Z,165
2016-12-03T08:27:57.860Z,170
2016-12-03T08:29:07.418Z,170
2016-12-03T08:30:15.994Z,175
2016-12-03T08:31:24.886Z,180
2016-12-03T08:32:33.466Z,180
2016-12-03T08:33:42.344Z,185
2016-12-03T08:34:51.589Z,185
2016-12-03T08:36:00.174Z,190
2016-12-03T08:37:09.401Z,190
2016-12-03T08:38:18.289Z,190
2016-12-03T08:39:27.844Z,195
2016-12-03T08:40:36.792Z,200
2016-12-03T08:41:46.022Z,200
2016-12-03T08:42:54.919Z,205
2016-12-03T08:44:03.829Z,205
2016-12-03T08:45:12.428Z,210
2016-12-03T08:46:21.097Z,210
2016-12-03T08:47:30.006Z,205
2016-12-03T08:48:38.905Z,210
2016-12-03T08:49:47.811Z,210
2016-12-03T08:50:56.395Z,210
2016-12-03T08:52:05.699Z,210
2016-12-03T08:53:14.286Z,210
2016-12-03T08:54:23.841Z,215
2016-12-03T08:55:32.733Z,215
2016-12-03T08:56:41.653Z,215
2016-12-03T08:57:50.931Z,220
2016-12-03T08:58:59.508Z,220
2016-12-03T09:00:09.025Z,220
2016-12-03T09:01:17.917Z,225
2016-12-03T09:02:26.829Z,225
2016-12-03T09:03:36.142Z,225
2016-12-03T09:04:45.038Z,225
2016-12-03T09:05:53.615Z,230
2016-12-03T09:07:02.204Z,230
2016-12-03T09:08:11.103Z,230
2016-12-03T09:09:19.785Z,230
2016-12-03T09:10:28.720Z,230
2016-12-03T09:11:37.944Z,235
2016-12-03T09:12:46.853Z,240
2016-12-03T09:13:56.072Z,240
2016-12-03T09:15:05.029Z,240
2016-12-03T09:16:13.596Z,240
2016-12-03T09:17:22.163Z,240
2016-12-03T09:18:30.742Z,240
2016-12-03T09:19:39.640Z,245
2016-12-03T09:20:49.508Z,250
2016-12-03T09:21:58.742Z,250
2016-12-03T09:23:07.962Z,250
2016-12-03T09:24:16.856Z,255
2016-12-03T09:25:25.423Z,250
2016-12-03T09:26:34.370Z,250
2016-12-03T09:27:42.951Z,255
2016-12-03T09:28:51.534Z,255
2016-12-03T09:30:00.758Z,255
2016-12-03T09:31:09.336Z,255
2016-12-03T09:32:18.928Z,255
2016-12-03T09:33:28.151Z,255
2016-12-03T09:34:36.767Z,260
2016-12-03T09:35:45.351Z,260
2016-12-03T09:36:53.948Z,260
2016-12-03T09:38:02.626Z,265
2016-12-03T09:39:11.214Z,265
2016-12-03T09:40:19.795Z,265
2016-12-03T09:41:29.025Z,265
2016-12-03T09:42:37.921Z,270
2016-12-03T09:43:46.546Z,270
2016-12-03T09:44:55.764Z,270
2016-12-03T09:46:05.000Z,275
2016-12-03T09:47:13.578Z,275
2016-12-03T09:48:22.494Z,275
2016-12-03T09:49:31.481Z,280
2016-12-03T09:50:40.390Z,280
2016-12-03T09:51:49.290Z,280
2016-12-03T09:52:58.193Z,280
2016-12-03T09:54:07.111Z,285
2016-12-03T09:55:15.785Z,285
2016-12-03T09:56:24.356Z,285
2016-12-03T09:57:32.935Z,285
2016-12-03T09:58:41.513Z,290
2016-12-03T09:59:50.411Z,290
2016-12-03T10:00:59.101Z,290
2016-12-03T10:02:08.016Z,290
2016-12-03T10:03:16.905Z,295
2016-12-03T10:04:25.491Z,295
2016-12-03T10:05:34.394Z,295
2016-12-03T10:06:43.427Z,300
2016-12-03T10:07:51.999Z,300
2016-12-03T10:09:01.229Z,300
2016-12-03T10:10:09.818Z,310
2016-12-03T10:11:18.390Z,305
2016-12-03T10:12:27.379Z,305
2016-12-03T10:13:36.279Z,305
2016-12-03T10:14:44.868Z,305
2016-12-03T10:15:53.779Z,305
2016-12-03T10:17:02.367Z,305
2016-12-03T10:18:11.302Z,310
2016-12-03T10:19:19.893Z,310
2016-12-03T10:20:28.799Z,310
2016-12-03T10:21:37.381Z,310
2016-12-03T10:22:45.941Z,310
2016-12-03T10:23:55.291Z,310
2016-12-03T10:25:03.874Z,310
2016-12-03T10:26:12.771Z,305
2016-12-03T10:27:21.675Z,305
2016-12-03T10:28:30.264Z,305
2016-12-03T10:29:39.829Z,305
2016-12-03T10:30:48.399Z,305
2016-12-03T10:31:57.306Z,305
2016-12-03T10:33:05.907Z,310
2016-12-03T10:34:14.799Z,310
2016-12-03T10:35:24.064Z,310
2016-12-03T10:36:33.292Z,310
2016-12-03T10:37:42.523Z,310
2016-12-03T10:38:51.116Z,310
2016-12-03T10:39:59.704Z,315
2016-12-03T10:41:08.340Z,315
2016-12-03T10:42:16.914Z,315
2016-12-03T10:43:25.487Z,320
2016-12-03T10:44:34.069Z,315
2016-12-03T10:45:42.657Z,315
2016-12-03T10:46:52.023Z,320
2016-12-03T10:48:00.939Z,320
2016-12-03T10:49:09.836Z,320
2016-12-03T10:50:18.408Z,320
2016-12-03T10:51:26.988Z,320
2016-12-03T10:52:36.303Z,320
2016-12-03T10:53:44.867Z,320
2016-12-03T10:54:53.765Z,320
2016-12-03T10:56:02.340Z,320
2016-12-03T10:57:10.918Z,320
2016-12-03T10:58:20.231Z,320
2016-12-03T10:59:29.144Z,320
2016-12-03T11:00:37.728Z,320
2016-12-03T11:01:46.636Z,320
2016-12-03T11:02:55.217Z,320
2016-12-03T11:04:04.147Z,320
2016-12-03T11:05:13.052Z,320
2016-12-03T11:06:21.649Z,320
2016-12-03T11:07:30.551Z,315
2016-12-03T11:08:39.463Z,315
2016-12-03T11:09:48.426Z,315
2016-12-03T11:10:57.023Z,315
2016-12-03T11:12:05.934Z,315
2016-12-03T11:13:14.844Z,315
2016-12-03T11:14:23.423Z,315
2016-12-03T11:15:32.379Z,315
2016-12-03T11:16:40.976Z,320
2016-12-03T11:17:49.880Z,315
2016-12-03T11:18:58.784Z,315
2016-12-03T11:20:07.390Z,320
2016-12-03T11:21:16.656Z,315
2016-12-03T11:22:25.249Z,310
2016-12-03T11:23:33.832Z,310
2016-12-03T11:24:42.415Z,315
2016-12-03T11:25:51.632Z,310
2016-12-03T11:27:00.612Z,315
2016-12-03T11:28:09.842Z,310
2016-12-03T11:29:19.077Z,315
2016-12-03T11:30:27.995Z,315
2016-12-03T11:31:36.594Z,315
2016-12-03T11:32:45.528Z,315
2016-12-03T11:33:54.118Z,315
2016-12-03T11:35:03.028Z,315
2016-12-03T11:36:11.931Z,315
2016-12-03T11:37:21.157Z,315
2016-12-03T11:38:30.743Z,315
2016-12-03T11:39:39.965Z,315
2016-12-03T11:40:49.528Z,315
2016-12-03T11:41:58.442Z,315
2016-12-03T11:43:07.017Z,315
2016-12-03T11:44:16.268Z,315
2016-12-03T11:45:24.851Z,315
2016-12-03T11:46:33.762Z,310
2016-12-03T11:47:42.650Z,310
2016-12-03T11:48:51.219Z,310
2016-12-03T11:50:00.408Z,310
2016-12-03T11:51:09.628Z,310
2016-12-03T11:52:18.540Z,305
2016-12-03T11:53:27.133Z,305
2016-12-03T11:54:35.713Z,305
2016-12-03T11:55:45.337Z,305
2016-12-03T11:56:53.964Z,300
2016-12-03T11:58:02.889Z,300
2016-12-03T11:59:11.789Z,300
2016-12-03T12:00:20.695Z,300
2016-12-03T12:01:29.346Z,300
2016-12-03T12:02:37.921Z,300
2016-12-03T12:03:46.503Z,300
2016-12-03T12:04:55.391Z,300
2016-12-03T12:06:04.305Z,300
2016-12-03T12:07:13.616Z,300
2016-12-03T12:08:22.842Z,300
2016-12-03T12:09:32.063Z,300
2016-12-03T12:10:40.643Z,300
2016-12-03T12:11:49.545Z,295
2016-12-03T12:12:58.485Z,295
2016-12-03T12:14:07.695Z,295
2016-12-03T12:15:16.603Z,295
2016-12-03T12:16:25.826Z,295
2016-12-03T12:17:34.404Z,295
2016-12-03T12:18:43.592Z,295
2016-12-03T12:19:52.175Z,290
2016-12-03T12:21:00.751Z,290
2016-12-03T12:22:09.335Z,290
2016-12-03T12:23:17.923Z,290
2016-12-03T12:24:27.210Z,290
2016-12-03T12:25:36.108Z,290
2016-12-03T12:26:45.663Z,290
2016-12-03T12:27:54.254Z,290
2016-12-03T12:29:02.825Z,290
2016-12-03T12:30:12.061Z,290
2016-12-03T12:31:20.654Z,290
2016-12-03T12:32:29.248Z,285
2016-12-03T12:33:37.820Z,285
2016-12-03T12:34:46.414Z,285
2016-12-03T12:35:55.092Z,285
2016-12-03T12:37:03.671Z,285
2016-12-03T12:38:12.906Z,285
2016-12-03T12:39:21.509Z,280
2016-12-03T12:40:30.446Z,280
2016-12-03T12:41:39.388Z,280
2016-12-03T12:42:47.973Z,280
2016-12-03T12:43:56.864Z,280
2016-12-03T12:45:06.392Z,275
2016-12-03T12:46:14.955Z,275
2016-12-03T12:47:24.273Z,275
2016-12-03T12:48:32.854Z,275
2016-12-03T12:49:41.772Z,275
2016-12-03T12:50:50.692Z,275
2016-12-03T12:51:59.294Z,270
2016-12-03T12:53:07.925Z,270
2016-12-03T12:54:16.825Z,270
2016-12-03T12:55:25.400Z,270
2016-12-03T12:56:34.304Z,270
2016-12-03T12:57:43.216Z,270
2016-12-03T12:58:51.865Z,270
2016-12-03T13:00:00.447Z,265
2016-12-03T13:01:10.005Z,265
2016-12-03T13:02:18.904Z,265
2016-12-03T13:03:27.489Z,265
2016-12-03T13:04:36.462Z,265
2016-12-03T13:05:45.045Z,265
2016-12-03T13:06:53.641Z,265
2016-12-03T13:08:02.546Z,265
2016-12-03T13:09:11.137Z,265
2016-12-03T13:10:20.099Z,265
2016-12-03T13:11:29.012Z,260
2016-12-03T13:12:37.604Z,265
2016-12-03T13:13:46.201Z,265
2016-12-03T13:14:54.784Z,270
2016-12-03T13:16:03.416Z,265
2016-12-03T13:17:12.325Z,265
2016-12-03T13:18:21.227Z,260
2016-12-03T13:19:30.794Z,260
2016-12-03T13:20:39.713Z,260
2016-12-03T13:21:48.666Z,260
2016-12-03T13:22:57.581Z,260
2016-12-03T13:24:06.168Z,255
2016-12-03T13:25:14.751Z,255
2016-12-03T13:26:23.970Z,255
2016-12-03T13:27:32.670Z,255
2016-12-03T13:28:41.248Z,250
2016-12-03T13:29:50.480Z,250
2016-12-03T13:30:59.399Z,245
2016-12-03T13:32:08.289Z,245
2016-12-03T13:33:17.319Z,240
2016-12-03T13:34:26.242Z,240
2016-12-03T13:35:35.166Z,235
2016-12-03T13:36:44.067Z,230
2016-12-03T13:37:53.279Z,230
2016-12-03T13:39:02.526Z,225
2016-12-03T13:40:12.081Z,225
2016-12-03T13:41:20.656Z,220
2016-12-03T13:42:29.245Z,220
2016-12-03T13:43:37.824Z,215
2016-12-03T13:44:47.413Z,215
2016-12-03T13:45:56.667Z,215
2016-12-03T13:47:05.245Z,215
2016-12-03T13:48:14.467Z,210
2016-12-03T13:49:23.048Z,210
2016-12-03T13:50:32.300Z,210
2016-12-03T13:51:40.889Z,205
2016-12-03T13:52:49.791Z,205
2016-12-03T13:53:58.380Z,200
2016-12-03T13:55:07.934Z,200
2016-12-03T13:56:16.866Z,195
2016-12-03T13:57:25.767Z,195
2016-12-03T13:58:34.355Z,190
2016-12-03T13:59:43.895Z,190
2016-12-03T14:00:52.471Z,190
2016-12-03T14:02:02.044Z,185
2016-12-03T14:03:11.292Z,185
2016-12-03T14:04:19.889Z,180
2016-12-03T14:05:28.794Z,180
2016-12-03T14:06:37.374Z,175
2016-12-03T14:07:46.312Z,175
2016-12-03T14:08:55.524Z,170
2016-12-03T14:10:04.133Z,170
2016-12-03T14:11:12.731Z,165
2016-12-03T14:12:21.309Z,165
2016-12-03T14:13:30.261Z,160
2016-12-03T14:14:39.481Z,160
2016-12-03T14:15:48.395Z,155
2016-12-03T14:16:57.298Z,155
2016-12-03T14:18:06.528Z,150
2016-12-03T14:19:15.476Z,150
2016-12-03T14:20:24.050Z,145
2016-12-03T14:21:32.632Z,145
2016-12-03T14:22:41.866Z,140
2016-12-03T14:23:50.754Z,140
2016-12-03T14:24:59.393Z,135
2016-12-03T14:26:08.009Z,130
2016-12-03T14:27:16.917Z,130
2016-12-03T14:28:25.825Z,125
2016-12-03T14:29:34.739Z,125
2016-12-03T14:30:44.399Z,120
2016-12-03T14:31:52.973Z,120
2016-12-03T14:33:01.564Z,115
2016-12-03T14:34:10.457Z,110
2016-12-03T14:35:19.057Z,105
2016-12-03T14:36:28.065Z,105
2016-12-03T14:37:36.648Z,105
2016-12-03T14:38:45.552Z,100
2016-12-03T14:39:54.764Z,100
2016-12-03T14:41:03.671Z,95
2016-12-03T14:42:12.284Z,90
2016-12-03T14:43:21.183Z,90
2016-12-03T14:44:30.076Z,85
2016-12-03T14:45:38.661Z,80
2016-12-03T14:46:47.556Z,80
2016-12-03T14:47:56.195Z,75
2016-12-03T14:49:04.778Z,70
2016-12-03T14:50:14.171Z,70
2016-12-03T14:51:23.403Z,65
2016-12-03T14:52:32.321Z,65
2016-12-03T14:53:41.268Z,60
2016-12-03T14:54:50.169Z,55
2016-12-03T14:55:58.764Z,55
2016-12-03T14:57:07.354Z,50
2016-12-03T14:58:15.949Z,50
2016-12-03T14:59:24.964Z,45
2016-12-03T15:00:33.542Z,45
2016-12-03T15:01:42.121Z,40
2016-12-03T15:02:51.246Z,40
2016-12-03T15:04:00.911Z,35
2016-12-03T15:05:11.117Z,35
2016-12-03T15:06:20.336Z,30
2016-12-03T15:07:30.137Z,30
2016-12-03T15:08:39.960Z,25
2016-12-03T15:09:49.403Z,25
2016-12-03T15:10:58.971Z,25
2016-12-03T15:12:07.880Z,20
2016-12-03T15:13:16.788Z,20
2016-12-03T15:14:25.384Z,15
2016-12-03T15:15:33.956Z,15
2016-12-03T15:16:43.281Z,15
2016-12-03T15:17:52.509Z,15
2016-12-03T15:19:01.088Z,10
2016-12-03T15:20:09.679Z,10
2016-12-03T15:21:18.594Z,10
2016-12-03T15:22:27.516Z,10
2016-12-03T15:23:36.106Z,5
2016-12-03T15:24:45.021Z,5
2016-12-03T15:25:53.600Z,5
2016-12-03T15:27:02.194Z,5
2016-12-03T15:28:11.247Z,5
2016-12-03T15:29:19.822Z,0
2016-12-03T15:30:28.412Z,0
2016-12-03T15:31:37.324Z,0
2016-12-03T15:32:45.922Z,0
2016-12-03T15:33:54.543Z,0
2016-12-03T15:35:03.134Z,0
2016-12-03T15:36:11.723Z,0
2016-12-03T15:37:20.300Z,0
2016-12-03T15:38:29.188Z,0
2016-12-03T15:39:38.137Z,0
2016-12-03T15:40:47.031Z,0
2016-12-03T15:41:55.918Z,0
2016-12-03T15:43:04.508Z,0
2016-12-03T15:44:13.411Z,0
2016-12-03T15:45:22.281Z,0
2016-12-03T15:46:30.860Z,0
2016-12-03T15:47:39.448Z,0
2016-12-03T15:48:48.678Z,0
2016-12-03T15:49:57.576Z,0
2016-12-03T15:51:06.506Z,0
2016-12-03T15:52:15.733Z,0
2016-12-03T15:53:24.645Z,0
2016-12-03T15:54:33.227Z,0
2016-12-03T15:55:41.806Z,0
2016-12-03T15:56:51.435Z,0
2016-12-03T15:58:00.672Z,0
2016-12-03T15:59:09.567Z,0
2016-12-03T16:00:19.093Z,0
2016-12-03T16:01:28.304Z,0
2016-12-03T16:02:37.281Z,0
2016-12-03T16:03:46.171Z,0
2016-12-03T16:04:54.749Z,0
2016-12-03T16:06:03.960Z,0
2016-12-03T16:07:12.545Z,0
2016-12-03T16:08:21.219Z,0
2016-12-03T16:09:30.138Z,0
2016-12-03T16:10:39.030Z,0
2016-12-03T16:11:48.233Z,0
2016-12-03T16:12:57.450Z,0
2016-12-03T16:14:06.402Z,0
2016-12-03T16:15:14.982Z,0
2016-12-03T16:16:23.883Z,0
2016-12-03T16:17:32.459Z,0
2016-12-03T16:18:41.385Z,0
2016-12-03T16:19:50.072Z,0
2016-12-03T16:20:58.983Z,0
2016-12-03T16:22:08.204Z,0
2016-12-03T16:23:17.106Z,0
2016-12-03T16:24:25.678Z,0
2016-12-03T16:25:34.358Z,0